Dawson, West Virginia
Current Conditions -  °F | °C
As of 7:55 PM on Tuesday 21 Oct 2014 (Local Time) from KLWB Reporting Station
Overcast Overcast  
Wind Chill: 45°   Ceiling: 2400
Heat Index: 47°   Visibility: 10mi
Dew Point: 40°   Wind: 5mph
Humidity: 75%   Direction: 280°W
Pressure: 29.99"   Gusts: NA
Location:  37.7578°N, 80.7095°W
Report Text: KLWB 212355Z AUTO 28004KT 10SM OVC024 08/04 A2999 RMK AO2 T00830042 10125 20082
Loading
Personal Weather Stations






























Interactive Weather Map
Tropical Storm Tracking
New forecast layout! Learn more

10-Day Weather Forecast

Advertisements
Track Severe Weather on mobile